sensor_id;sensor_type;location;lat;lon;timestamp;P1;durP1;ratioP1;P2;durP2;ratioP2
11008;SDS011;5557;51.670;7.788;2023-04-25T00:00:02;13.53;;;7.63;;
11008;SDS011;5557;51.670;7.788;2023-04-25T00:02:33;19.80;;;8.67;;
11008;SDS011;5557;51.670;7.788;2023-04-25T00:05:01;19.23;;;8.00;;
11008;SDS011;5557;51.670;7.788;2023-04-25T00:07:29;17.20;;;10.13;;
11008;SDS011;5557;51.670;7.788;2023-04-25T00:09:57;20.93;;;9.87;;
11008;SDS011;5557;51.670;7.788;2023-04-25T00:12:25;18.63;;;9.37;;
11008;SDS011;5557;51.670;7.788;2023-04-25T00:14:54;15.53;;;8.60;;
11008;SDS011;5557;51.670;7.788;2023-04-25T00:17:23;22.20;;;8.50;;
11008;SDS011;5557;51.670;7.788;2023-04-25T00:19:53;15.83;;;9.03;;
11008;SDS011;5557;51.670;7.788;2023-04-25T00:22:20;11.00;;;8.57;;
11008;SDS011;5557;51.670;7.788;2023-04-25T00:24:47;19.00;;;8.63;;
11008;SDS011;5557;51.670;7.788;2023-04-25T00:27:14;15.37;;;7.77;;
11008;SDS011;5557;51.670;7.788;2023-04-25T00:29:41;17.30;;;8.40;;
11008;SDS011;5557;51.670;7.788;2023-04-25T00:32:08;15.37;;;8.70;;
11008;SDS011;5557;51.670;7.788;2023-04-25T00:34:36;16.00;;;7.93;;
11008;SDS011;5557;51.670;7.788;2023-04-25T00:37:03;12.23;;;8.00;;
11008;SDS011;5557;51.670;7.788;2023-04-25T00:39:30;14.53;;;8.07;;
11008;SDS011;5557;51.670;7.788;2023-04-25T00:41:57;9.27;;;8.37;;
11008;SDS011;5557;51.670;7.788;2023-04-25T00:44:24;13.80;;;7.37;;
11008;SDS011;5557;51.670;7.788;2023-04-25T00:46:54;13.57;;;8.50;;
11008;SDS011;5557;51.670;7.788;2023-04-25T00:49:21;11.13;;;7.87;;
11008;SDS011;5557;51.670;7.788;2023-04-25T00:51:48;10.77;;;7.67;;
11008;SDS011;5557;51.670;7.788;2023-04-25T00:54:16;16.43;;;9.10;;
11008;SDS011;5557;51.670;7.788;2023-04-25T00:56:43;17.20;;;8.50;;
11008;SDS011;5557;51.670;7.788;2023-04-25T00:59:11;19.33;;;8.50;;
11008;SDS011;5557;51.670;7.788;2023-04-25T01:01:39;10.97;;;7.63;;
11008;SDS011;5557;51.670;7.788;2023-04-25T01:04:07;16.17;;;8.10;;
11008;SDS011;5557;51.670;7.788;2023-04-25T01:06:35;13.23;;;8.00;;
11008;SDS011;5557;51.670;7.788;2023-04-25T01:09:02;14.33;;;8.30;;
11008;SDS011;5557;51.670;7.788;2023-04-25T01:11:30;9.73;;;8.10;;
11008;SDS011;5557;51.670;7.788;2023-04-25T01:13:58;12.00;;;7.30;;
11008;SDS011;5557;51.670;7.788;2023-04-25T01:16:25;11.60;;;7.23;;
11008;SDS011;5557;51.670;7.788;2023-04-25T01:18:53;9.27;;;8.10;;
11008;SDS011;5557;51.670;7.788;2023-04-25T01:21:21;13.03;;;8.20;;
11008;SDS011;5557;51.670;7.788;2023-04-25T01:23:48;15.10;;;8.87;;
11008;SDS011;5557;51.670;7.788;2023-04-25T01:26:16;8.33;;;7.50;;
11008;SDS011;5557;51.670;7.788;2023-04-25T01:28:43;12.03;;;8.30;;
11008;SDS011;5557;51.670;7.788;2023-04-25T01:31:12;9.73;;;8.60;;
11008;SDS011;5557;51.670;7.788;2023-04-25T01:33:40;10.87;;;8.30;;
11008;SDS011;5557;51.670;7.788;2023-04-25T01:36:07;13.27;;;8.23;;
11008;SDS011;5557;51.670;7.788;2023-04-25T01:38:35;9.77;;;8.77;;
11008;SDS011;5557;51.670;7.788;2023-04-25T01:41:02;14.17;;;8.43;;
11008;SDS011;5557;51.670;7.788;2023-04-25T01:43:29;13.77;;;8.40;;
11008;SDS011;5557;51.670;7.788;2023-04-25T01:45:56;11.23;;;9.03;;
11008;SDS011;5557;51.670;7.788;2023-04-25T01:48:23;12.27;;;9.07;;
11008;SDS011;5557;51.670;7.788;2023-04-25T01:50:50;16.93;;;9.40;;
11008;SDS011;5557;51.670;7.788;2023-04-25T01:53:17;11.50;;;8.37;;
11008;SDS011;5557;51.670;7.788;2023-04-25T01:55:44;16.67;;;9.57;;
11008;SDS011;5557;51.670;7.788;2023-04-25T01:58:11;14.57;;;9.60;;
11008;SDS011;5557;51.670;7.788;2023-04-25T02:00:39;10.43;;;9.30;;
11008;SDS011;5557;51.670;7.788;2023-04-25T02:03:07;14.27;;;10.53;;
11008;SDS011;5557;51.670;7.788;2023-04-25T02:05:35;10.43;;;8.90;;
11008;SDS011;5557;51.670;7.788;2023-04-25T02:08:07;11.20;;;10.10;;
11008;SDS011;5557;51.670;7.788;2023-04-25T02:10:34;19.77;;;9.60;;
11008;SDS011;5557;51.670;7.788;2023-04-25T02:13:02;30.90;;;15.33;;
11008;SDS011;5557;51.670;7.788;2023-04-25T02:15:31;18.30;;;10.57;;
11008;SDS011;5557;51.670;7.788;2023-04-25T02:17:59;12.80;;;9.03;;
11008;SDS011;5557;51.670;7.788;2023-04-25T02:20:28;13.50;;;9.33;;
11008;SDS011;5557;51.670;7.788;2023-04-25T02:22:56;16.63;;;9.77;;
11008;SDS011;5557;51.670;7.788;2023-04-25T02:25:23;11.33;;;9.90;;
11008;SDS011;5557;51.670;7.788;2023-04-25T02:27:50;14.67;;;8.60;;
11008;SDS011;5557;51.670;7.788;2023-04-25T02:30:17;13.90;;;9.20;;
11008;SDS011;5557;51.670;7.788;2023-04-25T02:32:45;14.10;;;8.80;;
11008;SDS011;5557;51.670;7.788;2023-04-25T02:35:13;14.03;;;8.93;;
11008;SDS011;5557;51.670;7.788;2023-04-25T02:37:40;13.37;;;8.87;;
11008;SDS011;5557;51.670;7.788;2023-04-25T02:40:07;10.93;;;8.27;;
11008;SDS011;5557;51.670;7.788;2023-04-25T02:42:35;14.77;;;8.70;;
11008;SDS011;5557;51.670;7.788;2023-04-25T02:45:02;13.80;;;9.00;;
11008;SDS011;5557;51.670;7.788;2023-04-25T02:47:29;17.97;;;8.20;;
11008;SDS011;5557;51.670;7.788;2023-04-25T02:49:57;11.10;;;7.80;;
11008;SDS011;5557;51.670;7.788;2023-04-25T02:52:24;14.70;;;7.50;;
11008;SDS011;5557;51.670;7.788;2023-04-25T02:54:51;10.07;;;8.10;;
11008;SDS011;5557;51.670;7.788;2023-04-25T02:57:18;15.33;;;7.70;;
11008;SDS011;5557;51.670;7.788;2023-04-25T02:59:45;10.73;;;6.93;;
11008;SDS011;5557;51.670;7.788;2023-04-25T03:02:12;10.33;;;7.30;;
11008;SDS011;5557;51.670;7.788;2023-04-25T03:04:39;18.60;;;8.53;;
11008;SDS011;5557;51.670;7.788;2023-04-25T03:07:06;13.20;;;7.73;;
11008;SDS011;5557;51.670;7.788;2023-04-25T03:09:33;9.97;;;7.57;;
11008;SDS011;5557;51.670;7.788;2023-04-25T03:12:01;12.93;;;7.37;;
11008;SDS011;5557;51.670;7.788;2023-04-25T03:14:27;10.63;;;7.20;;
11008;SDS011;5557;51.670;7.788;2023-04-25T03:16:54;13.97;;;7.77;;
11008;SDS011;5557;51.670;7.788;2023-04-25T03:19:21;12.70;;;7.60;;
11008;SDS011;5557;51.670;7.788;2023-04-25T03:21:48;18.97;;;7.40;;
11008;SDS011;5557;51.670;7.788;2023-04-25T03:24:16;12.50;;;7.70;;
11008;SDS011;5557;51.670;7.788;2023-04-25T03:26:43;11.17;;;6.97;;
11008;SDS011;5557;51.670;7.788;2023-04-25T03:29:10;14.67;;;8.00;;
11008;SDS011;5557;51.670;7.788;2023-04-25T03:31:37;18.70;;;7.97;;
11008;SDS011;5557;51.670;7.788;2023-04-25T03:34:04;18.20;;;8.40;;
11008;SDS011;5557;51.670;7.788;2023-04-25T03:36:31;26.53;;;9.23;;
11008;SDS011;5557;51.670;7.788;2023-04-25T03:38:59;11.20;;;8.10;;
11008;SDS011;5557;51.670;7.788;2023-04-25T03:41:26;12.13;;;7.50;;
11008;SDS011;5557;51.670;7.788;2023-04-25T03:43:53;19.97;;;7.10;;
11008;SDS011;5557;51.670;7.788;2023-04-25T03:46:20;18.97;;;7.73;;
11008;SDS011;5557;51.670;7.788;2023-04-25T03:48:47;12.70;;;7.20;;
11008;SDS011;5557;51.670;7.788;2023-04-25T03:51:14;19.53;;;8.23;;
11008;SDS011;5557;51.670;7.788;2023-04-25T03:53:41;12.67;;;6.80;;
11008;SDS011;5557;51.670;7.788;2023-04-25T03:56:07;29.30;;;8.40;;
11008;SDS011;5557;51.670;7.788;2023-04-25T03:58:35;18.53;;;7.60;;
11008;SDS011;5557;51.670;7.788;2023-04-25T04:01:02;22.50;;;7.70;;
11008;SDS011;5557;51.670;7.788;2023-04-25T04:03:34;17.53;;;7.10;;
11008;SDS011;5557;51.670;7.788;2023-04-25T04:06:03;14.43;;;6.80;;
11008;SDS011;5557;51.670;7.788;2023-04-25T04:08:32;18.80;;;9.03;;
11008;SDS011;5557;51.670;7.788;2023-04-25T04:10:59;16.73;;;7.73;;
11008;SDS011;5557;51.670;7.788;2023-04-25T04:13:26;16.47;;;8.40;;
11008;SDS011;5557;51.670;7.788;2023-04-25T04:15:54;23.03;;;9.00;;
11008;SDS011;5557;51.670;7.788;2023-04-25T04:18:22;36.13;;;9.20;;
11008;SDS011;5557;51.670;7.788;2023-04-25T04:20:48;19.67;;;8.20;;
11008;SDS011;5557;51.670;7.788;2023-04-25T04:23:16;19.27;;;9.23;;
11008;SDS011;5557;51.670;7.788;2023-04-25T04:25:43;25.73;;;9.60;;
11008;SDS011;5557;51.670;7.788;2023-04-25T04:28:10;35.03;;;8.47;;
11008;SDS011;5557;51.670;7.788;2023-04-25T04:30:37;25.83;;;8.40;;
11008;SDS011;5557;51.670;7.788;2023-04-25T04:33:07;21.57;;;8.43;;
11008;SDS011;5557;51.670;7.788;2023-04-25T04:35:35;22.23;;;7.60;;
11008;SDS011;5557;51.670;7.788;2023-04-25T04:38:02;19.70;;;8.20;;
11008;SDS011;5557;51.670;7.788;2023-04-25T04:40:29;19.90;;;7.63;;
11008;SDS011;5557;51.670;7.788;2023-04-25T04:42:59;20.90;;;8.47;;
11008;SDS011;5557;51.670;7.788;2023-04-25T04:45:26;17.10;;;7.10;;
11008;SDS011;5557;51.670;7.788;2023-04-25T04:47:53;29.77;;;8.40;;
11008;SDS011;5557;51.670;7.788;2023-04-25T04:50:21;23.63;;;7.60;;
11008;SDS011;5557;51.670;7.788;2023-04-25T04:52:49;25.33;;;8.20;;
11008;SDS011;5557;51.670;7.788;2023-04-25T04:55:16;24.33;;;8.83;;
11008;SDS011;5557;51.670;7.788;2023-04-25T04:57:43;20.73;;;8.93;;
11008;SDS011;5557;51.670;7.788;2023-04-25T05:00:10;22.37;;;7.70;;
11008;SDS011;5557;51.670;7.788;2023-04-25T05:02:38;15.30;;;7.40;;
11008;SDS011;5557;51.670;7.788;2023-04-25T05:05:06;20.80;;;7.00;;
11008;SDS011;5557;51.670;7.788;2023-04-25T05:07:34;14.10;;;5.67;;
11008;SDS011;5557;51.670;7.788;2023-04-25T05:10:01;22.63;;;8.13;;
11008;SDS011;5557;51.670;7.788;2023-04-25T05:12:28;22.00;;;9.03;;
11008;SDS011;5557;51.670;7.788;2023-04-25T05:14:55;18.67;;;8.20;;
11008;SDS011;5557;51.670;7.788;2023-04-25T05:17:22;21.90;;;7.57;;
11008;SDS011;5557;51.670;7.788;2023-04-25T05:19:49;22.67;;;7.93;;
11008;SDS011;5557;51.670;7.788;2023-04-25T05:22:16;20.80;;;7.57;;
11008;SDS011;5557;51.670;7.788;2023-04-25T05:24:43;19.23;;;10.30;;
11008;SDS011;5557;51.670;7.788;2023-04-25T05:27:10;15.13;;;6.80;;
11008;SDS011;5557;51.670;7.788;2023-04-25T05:29:37;21.30;;;8.10;;
11008;SDS011;5557;51.670;7.788;2023-04-25T05:32:04;20.53;;;7.30;;
11008;SDS011;5557;51.670;7.788;2023-04-25T05:34:32;25.70;;;7.23;;
11008;SDS011;5557;51.670;7.788;2023-04-25T05:36:59;15.03;;;6.63;;
11008;SDS011;5557;51.670;7.788;2023-04-25T05:39:26;17.23;;;6.50;;
11008;SDS011;5557;51.670;7.788;2023-04-25T05:41:53;27.17;;;6.53;;
11008;SDS011;5557;51.670;7.788;2023-04-25T05:44:20;25.57;;;7.00;;
11008;SDS011;5557;51.670;7.788;2023-04-25T05:46:47;15.70;;;5.57;;
11008;SDS011;5557;51.670;7.788;2023-04-25T05:49:14;15.17;;;5.67;;
11008;SDS011;5557;51.670;7.788;2023-04-25T05:51:44;11.83;;;5.03;;
11008;SDS011;5557;51.670;7.788;2023-04-25T05:54:11;18.70;;;5.33;;
11008;SDS011;5557;51.670;7.788;2023-04-25T05:56:38;18.23;;;5.50;;
11008;SDS011;5557;51.670;7.788;2023-04-25T05:59:05;11.30;;;5.00;;
11008;SDS011;5557;51.670;7.788;2023-04-25T06:01:32;10.80;;;4.70;;
11008;SDS011;5557;51.670;7.788;2023-04-25T06:03:59;20.10;;;4.93;;
11008;SDS011;5557;51.670;7.788;2023-04-25T06:06:27;19.03;;;4.90;;
11008;SDS011;5557;51.670;7.788;2023-04-25T06:08:54;16.83;;;6.70;;
11008;SDS011;5557;51.670;7.788;2023-04-25T06:11:21;15.83;;;5.67;;
11008;SDS011;5557;51.670;7.788;2023-04-25T06:13:48;14.97;;;4.97;;
11008;SDS011;5557;51.670;7.788;2023-04-25T06:16:16;13.97;;;4.37;;
11008;SDS011;5557;51.670;7.788;2023-04-25T06:18:43;17.70;;;4.33;;
11008;SDS011;5557;51.670;7.788;2023-04-25T06:21:10;13.23;;;5.83;;
11008;SDS011;5557;51.670;7.788;2023-04-25T06:23:37;18.47;;;4.03;;
11008;SDS011;5557;51.670;7.788;2023-04-25T06:26:04;12.10;;;3.70;;
11008;SDS011;5557;51.670;7.788;2023-04-25T06:28:30;13.20;;;4.00;;
11008;SDS011;5557;51.670;7.788;2023-04-25T06:30:57;21.97;;;3.90;;
11008;SDS011;5557;51.670;7.788;2023-04-25T06:33:25;14.10;;;4.30;;
11008;SDS011;5557;51.670;7.788;2023-04-25T06:35:53;8.93;;;3.60;;
11008;SDS011;5557;51.670;7.788;2023-04-25T06:38:19;17.83;;;4.67;;
11008;SDS011;5557;51.670;7.788;2023-04-25T06:40:46;22.13;;;4.97;;
11008;SDS011;5557;51.670;7.788;2023-04-25T06:43:13;10.57;;;3.77;;
11008;SDS011;5557;51.670;7.788;2023-04-25T06:45:40;12.37;;;4.70;;
11008;SDS011;5557;51.670;7.788;2023-04-25T06:48:10;20.33;;;4.97;;
11008;SDS011;5557;51.670;7.788;2023-04-25T06:50:39;12.07;;;3.87;;
11008;SDS011;5557;51.670;7.788;2023-04-25T06:53:07;33.70;;;6.60;;
11008;SDS011;5557;51.670;7.788;2023-04-25T06:55:35;11.00;;;4.70;;
11008;SDS011;5557;51.670;7.788;2023-04-25T06:58:02;10.53;;;4.27;;
11008;SDS011;5557;51.670;7.788;2023-04-25T07:00:29;9.43;;;4.30;;
11008;SDS011;5557;51.670;7.788;2023-04-25T07:02:57;12.93;;;4.60;;
11008;SDS011;5557;51.670;7.788;2023-04-25T07:05:24;10.37;;;3.57;;
11008;SDS011;5557;51.670;7.788;2023-04-25T07:07:51;6.20;;;3.60;;
11008;SDS011;5557;51.670;7.788;2023-04-25T07:10:18;10.47;;;3.40;;
11008;SDS011;5557;51.670;7.788;2023-04-25T07:12:45;11.17;;;3.90;;
11008;SDS011;5557;51.670;7.788;2023-04-25T07:15:12;6.30;;;3.37;;
11008;SDS011;5557;51.670;7.788;2023-04-25T07:17:39;8.03;;;3.27;;
11008;SDS011;5557;51.670;7.788;2023-04-25T07:20:06;16.73;;;4.23;;
11008;SDS011;5557;51.670;7.788;2023-04-25T07:22:35;13.50;;;3.80;;
11008;SDS011;5557;51.670;7.788;2023-04-25T07:25:02;10.23;;;3.47;;
11008;SDS011;5557;51.670;7.788;2023-04-25T07:27:30;12.50;;;4.00;;
11008;SDS011;5557;51.670;7.788;2023-04-25T07:29:58;16.57;;;3.23;;
11008;SDS011;5557;51.670;7.788;2023-04-25T07:32:25;15.90;;;3.63;;
11008;SDS011;5557;51.670;7.788;2023-04-25T07:34:53;5.17;;;2.73;;
11008;SDS011;5557;51.670;7.788;2023-04-25T07:37:20;7.13;;;2.97;;
11008;SDS011;5557;51.670;7.788;2023-04-25T07:39:47;13.20;;;2.97;;
11008;SDS011;5557;51.670;7.788;2023-04-25T07:42:18;8.63;;;2.50;;
11008;SDS011;5557;51.670;7.788;2023-04-25T07:44:47;10.80;;;3.30;;
11008;SDS011;5557;51.670;7.788;2023-04-25T07:47:14;12.50;;;3.53;;
11008;SDS011;5557;51.670;7.788;2023-04-25T07:49:41;6.60;;;2.63;;
11008;SDS011;5557;51.670;7.788;2023-04-25T07:52:08;12.30;;;3.10;;
11008;SDS011;5557;51.670;7.788;2023-04-25T07:54:35;12.97;;;2.90;;
11008;SDS011;5557;51.670;7.788;2023-04-25T07:57:02;9.37;;;2.47;;
11008;SDS011;5557;51.670;7.788;2023-04-25T07:59:29;2.90;;;2.13;;
11008;SDS011;5557;51.670;7.788;2023-04-25T08:01:56;6.90;;;2.00;;
11008;SDS011;5557;51.670;7.788;2023-04-25T08:04:24;13.90;;;2.90;;
11008;SDS011;5557;51.670;7.788;2023-04-25T08:06:52;11.47;;;2.47;;
11008;SDS011;5557;51.670;7.788;2023-04-25T08:09:22;6.70;;;2.30;;
11008;SDS011;5557;51.670;7.788;2023-04-25T08:11:49;7.07;;;2.43;;
11008;SDS011;5557;51.670;7.788;2023-04-25T08:14:16;10.07;;;3.17;;
11008;SDS011;5557;51.670;7.788;2023-04-25T08:16:43;8.23;;;2.97;;
11008;SDS011;5557;51.670;7.788;2023-04-25T08:19:10;4.93;;;2.07;;
11008;SDS011;5557;51.670;7.788;2023-04-25T08:21:37;9.20;;;3.13;;
11008;SDS011;5557;51.670;7.788;2023-04-25T08:24:04;4.63;;;2.00;;
11008;SDS011;5557;51.670;7.788;2023-04-25T08:26:32;11.67;;;2.97;;
11008;SDS011;5557;51.670;7.788;2023-04-25T08:29:00;10.67;;;2.70;;
11008;SDS011;5557;51.670;7.788;2023-04-25T08:31:27;4.83;;;2.60;;
11008;SDS011;5557;51.670;7.788;2023-04-25T08:33:54;9.73;;;2.40;;
11008;SDS011;5557;51.670;7.788;2023-04-25T08:36:21;2.50;;;2.03;;
11008;SDS011;5557;51.670;7.788;2023-04-25T08:39:04;6.97;;;3.17;;
11008;SDS011;5557;51.670;7.788;2023-04-25T08:41:31;12.67;;;2.60;;
11008;SDS011;5557;51.670;7.788;2023-04-25T08:43:58;4.10;;;1.97;;
11008;SDS011;5557;51.670;7.788;2023-04-25T08:46:27;5.30;;;2.07;;
11008;SDS011;5557;51.670;7.788;2023-04-25T08:48:59;7.33;;;2.47;;
11008;SDS011;5557;51.670;7.788;2023-04-25T08:51:27;6.60;;;2.20;;
11008;SDS011;5557;51.670;7.788;2023-04-25T08:54:05;4.20;;;1.70;;
11008;SDS011;5557;51.670;7.788;2023-04-25T08:56:41;6.03;;;1.80;;
11008;SDS011;5557;51.670;7.788;2023-04-25T08:59:11;5.37;;;2.10;;
11008;SDS011;5557;51.670;7.788;2023-04-25T09:01:38;6.37;;;2.20;;
11008;SDS011;5557;51.670;7.788;2023-04-25T09:04:06;6.90;;;2.20;;
11008;SDS011;5557;51.670;7.788;2023-04-25T09:06:33;6.63;;;2.33;;
11008;SDS011;5557;51.670;7.788;2023-04-25T09:09:04;9.33;;;2.30;;
11008;SDS011;5557;51.670;7.788;2023-04-25T09:11:34;4.60;;;1.73;;
11008;SDS011;5557;51.670;7.788;2023-04-25T09:14:14;5.40;;;2.40;;
11008;SDS011;5557;51.670;7.788;2023-04-25T09:17:18;12.43;;;2.10;;
11008;SDS011;5557;51.670;7.788;2023-04-25T09:19:38;2.93;;;1.60;;
11008;SDS011;5557;51.670;7.788;2023-04-25T09:22:07;7.90;;;1.97;;
11008;SDS011;5557;51.670;7.788;2023-04-25T09:24:42;9.60;;;2.30;;
11008;SDS011;5557;51.670;7.788;2023-04-25T09:27:12;5.00;;;2.00;;
11008;SDS011;5557;51.670;7.788;2023-04-25T09:29:44;7.67;;;2.47;;
11008;SDS011;5557;51.670;7.788;2023-04-25T09:32:19;6.20;;;2.80;;
11008;SDS011;5557;51.670;7.788;2023-04-25T09:34:55;9.23;;;2.10;;
11008;SDS011;5557;51.670;7.788;2023-04-25T09:37:24;5.53;;;2.43;;
11008;SDS011;5557;51.670;7.788;2023-04-25T09:39:57;5.30;;;2.30;;
11008;SDS011;5557;51.670;7.788;2023-04-25T09:42:26;3.97;;;2.30;;
11008;SDS011;5557;51.670;7.788;2023-04-25T09:44:55;14.13;;;2.23;;
11008;SDS011;5557;51.670;7.788;2023-04-25T09:47:23;11.43;;;3.10;;
11008;SDS011;5557;51.670;7.788;2023-04-25T09:49:53;7.27;;;2.40;;
11008;SDS011;5557;51.670;7.788;2023-04-25T09:52:22;7.60;;;2.50;;
11008;SDS011;5557;51.670;7.788;2023-04-25T09:54:51;11.50;;;3.30;;
11008;SDS011;5557;51.670;7.788;2023-04-25T09:57:19;5.77;;;1.80;;
11008;SDS011;5557;51.670;7.788;2023-04-25T09:59:53;6.10;;;2.37;;
11008;SDS011;5557;51.670;7.788;2023-04-25T10:02:22;12.03;;;1.63;;
11008;SDS011;5557;51.670;7.788;2023-04-25T10:04:55;5.60;;;1.40;;
11008;SDS011;5557;51.670;7.788;2023-04-25T10:07:23;11.10;;;2.40;;
11008;SDS011;5557;51.670;7.788;2023-04-25T10:09:58;2.77;;;1.80;;
11008;SDS011;5557;51.670;7.788;2023-04-25T10:12:30;4.60;;;1.60;;
11008;SDS011;5557;51.670;7.788;2023-04-25T10:14:58;5.83;;;1.80;;
11008;SDS011;5557;51.670;7.788;2023-04-25T10:17:26;5.40;;;1.50;;
11008;SDS011;5557;51.670;7.788;2023-04-25T10:19:56;3.93;;;1.70;;
11008;SDS011;5557;51.670;7.788;2023-04-25T10:22:31;3.63;;;1.60;;
11008;SDS011;5557;51.670;7.788;2023-04-25T10:25:01;4.43;;;1.50;;
11008;SDS011;5557;51.670;7.788;2023-04-25T10:27:32;9.47;;;2.00;;
11008;SDS011;5557;51.670;7.788;2023-04-25T10:30:00;5.20;;;1.73;;
11008;SDS011;5557;51.670;7.788;2023-04-25T10:32:32;5.60;;;2.07;;
11008;SDS011;5557;51.670;7.788;2023-04-25T10:37:58;2.60;;;1.83;;
11008;SDS011;5557;51.670;7.788;2023-04-25T10:41:04;7.80;;;2.10;;
11008;SDS011;5557;51.670;7.788;2023-04-25T10:43:36;4.47;;;1.50;;
11008;SDS011;5557;51.670;7.788;2023-04-25T10:46:17;7.47;;;2.07;;
11008;SDS011;5557;51.670;7.788;2023-04-25T10:48:57;8.67;;;2.40;;
11008;SDS011;5557;51.670;7.788;2023-04-25T10:51:26;2.60;;;2.40;;
11008;SDS011;5557;51.670;7.788;2023-04-25T10:54:18;3.90;;;2.40;;
11008;SDS011;5557;51.670;7.788;2023-04-25T10:56:48;13.63;;;1.90;;
11008;SDS011;5557;51.670;7.788;2023-04-25T10:59:17;4.20;;;1.77;;
11008;SDS011;5557;51.670;7.788;2023-04-25T11:01:46;5.70;;;2.37;;
11008;SDS011;5557;51.670;7.788;2023-04-25T11:04:27;3.37;;;2.07;;
11008;SDS011;5557;51.670;7.788;2023-04-25T11:10:18;5.47;;;1.60;;
11008;SDS011;5557;51.670;7.788;2023-04-25T11:12:46;8.03;;;1.60;;
11008;SDS011;5557;51.670;7.788;2023-04-25T11:15:13;7.90;;;1.87;;
11008;SDS011;5557;51.670;7.788;2023-04-25T11:17:40;5.70;;;1.87;;
11008;SDS011;5557;51.670;7.788;2023-04-25T11:20:09;8.03;;;2.27;;
11008;SDS011;5557;51.670;7.788;2023-04-25T11:22:38;6.70;;;1.87;;
11008;SDS011;5557;51.670;7.788;2023-04-25T11:25:07;4.43;;;1.90;;
11008;SDS011;5557;51.670;7.788;2023-04-25T11:27:54;5.20;;;1.53;;
11008;SDS011;5557;51.670;7.788;2023-04-25T11:30:25;6.50;;;1.97;;
11008;SDS011;5557;51.670;7.788;2023-04-25T11:32:53;4.20;;;1.63;;
11008;SDS011;5557;51.670;7.788;2023-04-25T11:35:21;3.50;;;1.60;;
11008;SDS011;5557;51.670;7.788;2023-04-25T11:37:49;3.57;;;1.50;;
11008;SDS011;5557;51.670;7.788;2023-04-25T11:40:16;3.30;;;1.70;;
11008;SDS011;5557;51.670;7.788;2023-04-25T11:42:44;3.83;;;1.17;;
11008;SDS011;5557;51.670;7.788;2023-04-25T11:45:13;1.53;;;1.00;;
11008;SDS011;5557;51.670;7.788;2023-04-25T11:47:41;2.30;;;1.40;;
11008;SDS011;5557;51.670;7.788;2023-04-25T11:50:08;3.63;;;1.23;;
11008;SDS011;5557;51.670;7.788;2023-04-25T11:52:39;5.73;;;1.23;;
11008;SDS011;5557;51.670;7.788;2023-04-25T11:55:14;2.53;;;1.33;;
11008;SDS011;5557;51.670;7.788;2023-04-25T11:57:46;8.13;;;1.50;;
11008;SDS011;5557;51.670;7.788;2023-04-25T12:00:16;4.13;;;1.83;;
11008;SDS011;5557;51.670;7.788;2023-04-25T12:02:55;2.13;;;1.37;;
11008;SDS011;5557;51.670;7.788;2023-04-25T12:05:27;3.40;;;1.63;;
11008;SDS011;5557;51.670;7.788;2023-04-25T12:08:10;2.20;;;1.37;;
11008;SDS011;5557;51.670;7.788;2023-04-25T12:10:41;4.10;;;1.50;;
11008;SDS011;5557;51.670;7.788;2023-04-25T12:13:25;2.80;;;1.57;;
11008;SDS011;5557;51.670;7.788;2023-04-25T12:15:54;3.00;;;1.20;;
11008;SDS011;5557;51.670;7.788;2023-04-25T12:18:25;3.17;;;1.40;;
11008;SDS011;5557;51.670;7.788;2023-04-25T12:20:55;2.50;;;1.37;;
11008;SDS011;5557;51.670;7.788;2023-04-25T12:23:28;3.57;;;1.53;;
11008;SDS011;5557;51.670;7.788;2023-04-25T12:25:57;5.33;;;1.93;;
11008;SDS011;5557;51.670;7.788;2023-04-25T12:28:25;2.00;;;1.10;;
11008;SDS011;5557;51.670;7.788;2023-04-25T12:31:06;2.00;;;1.00;;
11008;SDS011;5557;51.670;7.788;2023-04-25T12:33:36;13.03;;;1.13;;
11008;SDS011;5557;51.670;7.788;2023-04-25T12:36:05;2.00;;;0.90;;
11008;SDS011;5557;51.670;7.788;2023-04-25T12:38:40;5.50;;;1.87;;
11008;SDS011;5557;51.670;7.788;2023-04-25T12:41:10;3.90;;;1.40;;
11008;SDS011;5557;51.670;7.788;2023-04-25T12:43:37;2.60;;;1.43;;
11008;SDS011;5557;51.670;7.788;2023-04-25T12:46:06;2.53;;;1.20;;
11008;SDS011;5557;51.670;7.788;2023-04-25T12:48:32;3.27;;;1.83;;
11008;SDS011;5557;51.670;7.788;2023-04-25T12:50:59;2.07;;;1.40;;
11008;SDS011;5557;51.670;7.788;2023-04-25T12:53:26;2.90;;;1.50;;
11008;SDS011;5557;51.670;7.788;2023-04-25T12:55:54;7.47;;;1.57;;
11008;SDS011;5557;51.670;7.788;2023-04-25T12:58:20;5.50;;;1.57;;
11008;SDS011;5557;51.670;7.788;2023-04-25T13:00:47;15.60;;;2.27;;
11008;SDS011;5557;51.670;7.788;2023-04-25T13:03:15;2.50;;;1.23;;
11008;SDS011;5557;51.670;7.788;2023-04-25T13:05:43;4.70;;;1.67;;
11008;SDS011;5557;51.670;7.788;2023-04-25T13:08:09;4.50;;;1.70;;
11008;SDS011;5557;51.670;7.788;2023-04-25T13:10:36;5.93;;;1.47;;
11008;SDS011;5557;51.670;7.788;2023-04-25T13:13:05;3.23;;;1.30;;
11008;SDS011;5557;51.670;7.788;2023-04-25T13:15:32;3.30;;;1.47;;
11008;SDS011;5557;51.670;7.788;2023-04-25T13:17:59;2.67;;;1.50;;
11008;SDS011;5557;51.670;7.788;2023-04-25T13:20:26;3.43;;;1.63;;
11008;SDS011;5557;51.670;7.788;2023-04-25T13:22:55;1.57;;;1.00;;
11008;SDS011;5557;51.670;7.788;2023-04-25T13:25:25;1.60;;;1.20;;
11008;SDS011;5557;51.670;7.788;2023-04-25T13:27:52;5.40;;;1.47;;
11008;SDS011;5557;51.670;7.788;2023-04-25T13:30:19;1.47;;;0.80;;
11008;SDS011;5557;51.670;7.788;2023-04-25T13:32:46;2.23;;;1.03;;
11008;SDS011;5557;51.670;7.788;2023-04-25T13:35:13;2.30;;;1.60;;
11008;SDS011;5557;51.670;7.788;2023-04-25T13:37:41;2.57;;;1.20;;
11008;SDS011;5557;51.670;7.788;2023-04-25T13:40:09;1.63;;;1.10;;
11008;SDS011;5557;51.670;7.788;2023-04-25T13:42:37;3.63;;;1.10;;
11008;SDS011;5557;51.670;7.788;2023-04-25T13:45:06;1.97;;;1.20;;
11008;SDS011;5557;51.670;7.788;2023-04-25T13:47:34;3.27;;;1.10;;
11008;SDS011;5557;51.670;7.788;2023-04-25T13:50:02;2.20;;;1.43;;
11008;SDS011;5557;51.670;7.788;2023-04-25T13:52:30;1.20;;;1.10;;
11008;SDS011;5557;51.670;7.788;2023-04-25T13:54:57;1.80;;;0.93;;
11008;SDS011;5557;51.670;7.788;2023-04-25T13:57:24;1.83;;;1.50;;
11008;SDS011;5557;51.670;7.788;2023-04-25T13:59:52;1.47;;;0.90;;
11008;SDS011;5557;51.670;7.788;2023-04-25T14:02:21;1.53;;;1.40;;
11008;SDS011;5557;51.670;7.788;2023-04-25T14:04:49;5.43;;;1.40;;
11008;SDS011;5557;51.670;7.788;2023-04-25T14:07:16;2.20;;;1.10;;
11008;SDS011;5557;51.670;7.788;2023-04-25T14:09:43;4.53;;;1.60;;
11008;SDS011;5557;51.670;7.788;2023-04-25T14:12:10;1.27;;;1.17;;
11008;SDS011;5557;51.670;7.788;2023-04-25T14:14:37;2.30;;;1.47;;
11008;SDS011;5557;51.670;7.788;2023-04-25T14:17:04;6.37;;;1.47;;
11008;SDS011;5557;51.670;7.788;2023-04-25T14:19:31;4.60;;;1.40;;
11008;SDS011;5557;51.670;7.788;2023-04-25T14:21:58;1.93;;;1.27;;
11008;SDS011;5557;51.670;7.788;2023-04-25T14:24:25;3.77;;;1.27;;
11008;SDS011;5557;51.670;7.788;2023-04-25T14:26:52;7.03;;;1.80;;
11008;SDS011;5557;51.670;7.788;2023-04-25T14:29:19;2.70;;;0.83;;
11008;SDS011;5557;51.670;7.788;2023-04-25T14:31:46;2.57;;;1.23;;
11008;SDS011;5557;51.670;7.788;2023-04-25T14:34:13;2.90;;;1.13;;
11008;SDS011;5557;51.670;7.788;2023-04-25T14:36:40;1.70;;;1.23;;
11008;SDS011;5557;51.670;7.788;2023-04-25T14:39:08;2.83;;;1.60;;
11008;SDS011;5557;51.670;7.788;2023-04-25T14:41:35;3.43;;;1.03;;
11008;SDS011;5557;51.670;7.788;2023-04-25T14:44:02;3.73;;;1.00;;
11008;SDS011;5557;51.670;7.788;2023-04-25T14:46:29;1.40;;;1.30;;
11008;SDS011;5557;51.670;7.788;2023-04-25T14:48:56;4.03;;;1.70;;
11008;SDS011;5557;51.670;7.788;2023-04-25T14:51:23;5.40;;;1.30;;
11008;SDS011;5557;51.670;7.788;2023-04-25T14:53:49;3.77;;;1.53;;
11008;SDS011;5557;51.670;7.788;2023-04-25T14:56:17;8.50;;;1.50;;
11008;SDS011;5557;51.670;7.788;2023-04-25T14:58:45;2.43;;;1.30;;
11008;SDS011;5557;51.670;7.788;2023-04-25T15:01:12;2.90;;;1.20;;
11008;SDS011;5557;51.670;7.788;2023-04-25T15:03:41;1.37;;;1.27;;
11008;SDS011;5557;51.670;7.788;2023-04-25T15:06:09;1.47;;;1.17;;